Temp: 14.3°C   Baro: 1019.0mb
  Wind: 2.0mph   Dir: NNE (15°)
  Rain: 0.2mm (0.0mm/hr)
  Solar: 297W/m2  Hum: 68%
 
Bath Spa Weather Station Historical Data
Daily Summary for November 3, 2019 Units:  Metric    English   Both
Daily Weekly Monthly Yearly Custom
  High: Low: Average:
Temperature: 13.4 °C 7.1 °C 9.8 °C
Dew Point: 10.5 °C 5.4 °C 8.1 °C
Humidity: 94.6% 76.2% 89%
Wind Speed: 16.7km/h 0km/h 3.5km/h
Wind Gust: 30.6km/h - -
Wind- - West
Pressure: 983.3 hPa 977.5 hPa -
Precipitation: 7.87 mm    
Historical Graphs
 
 
Tabular Data for November 3, 2019
Time Temperature Dew Point Pressure Wind Wind Speed Wind Gust Humidity Rainfall Rate (Hourly) solar
00:04 9.1 °C 6.9 °C 977.9 hPa SW 12.2 km/h 20.9 km/h 86% 0 mm 0 W/m2
00:09 9.1 °C 6.8 °C 977.9 hPa SW 8.4 km/h 20.9 km/h 86% 0 mm 0 W/m2
00:14 8.9 °C 6.8 °C 977.9 hPa SW 9.2 km/h 20.9 km/h 86% 0 mm 0 W/m2
00:19 8.9 °C 6.7 °C 977.9 hPa SW 8.4 km/h 19.3 km/h 86% 0 mm 0 W/m2
00:24 8.9 °C 6.7 °C 977.9 hPa WSW 8.9 km/h 19.3 km/h 86% 0 mm 0 W/m2
00:29 8.8 °C 6.7 °C 977.9 hPa WSW 8.9 km/h 17.7 km/h 86% 0 mm 0 W/m2
00:34 8.8 °C 6.6 °C 977.9 hPa SW 4.2 km/h 12.9 km/h 86% 0 mm 0 W/m2
00:39 8.8 °C 6.6 °C 977.9 hPa SW 6.4 km/h 20.9 km/h 86% 0 mm 0 W/m2
00:44 8.7 °C 6.5 °C 977.9 hPa SW 7.2 km/h 20.9 km/h 86% 0 mm 0 W/m2
00:49 8.7 °C 6.5 °C 977.9 hPa WSW 7.2 km/h 12.9 km/h 86% 0 mm 0 W/m2
00:54 8.7 °C 6.5 °C 977.9 hPa WSW 6.8 km/h 14.5 km/h 86% 0 mm 0 W/m2
00:59 8.6 °C 6.4 °C 977.9 hPa West 4.2 km/h 14.5 km/h 86% 0 mm 0 W/m2
01:04 8.6 °C 6.4 °C 977.9 hPa West 3.2 km/h 8 km/h 86% 0 mm 0 W/m2
01:09 8.6 °C 6.3 °C 978.2 hPa WNW 4 km/h 11.3 km/h 86% 0 mm 0 W/m2
01:14 8.5 °C 6.4 °C 978.2 hPa NW 1.3 km/h 8 km/h 86.7% 0 mm 0 W/m2
01:19 8.4 °C 6.3 °C 978.2 hPa WNW 4.2 km/h 9.7 km/h 86.3% 0 mm 0 W/m2
01:24 8.4 °C 6.4 °C 978.2 hPa WSW 7.2 km/h 14.5 km/h 87% 0 mm 0 W/m2
01:29 8.4 °C 6.4 °C 978.2 hPa WSW 1 km/h 11.3 km/h 87% 0 mm 0 W/m2
01:34 8.4 °C 6.4 °C 978.2 hPa Calm   1.6 km/h 87% 0 mm 0 W/m2
01:39 8.3 °C 6.3 °C 978.2 hPa Calm   1.6 km/h 87% 0 mm 0 W/m2
01:44 8.3 °C 6.3 °C 977.9 hPa WSW 0.3 km/h 4.8 km/h 87% 0 mm 0 W/m2
01:49 8.3 °C 6.3 °C 977.9 hPa Calm   3.2 km/h 87% 0 mm 0 W/m2
01:54 8.3 °C 6.3 °C 977.9 hPa WSW 1.1 km/h 6.4 km/h 87% 0 mm 0 W/m2
01:59 8.2 °C 6.2 °C 977.9 hPa WSW 0.6 km/h 6.4 km/h 87% 0 mm 0 W/m2
02:04 8.2 °C 6.2 °C 977.9 hPa WSW 0.5 km/h 4.8 km/h 87% 0 mm 0 W/m2
02:09 8.1 °C 6.1 °C 977.9 hPa Calm   1.6 km/h 87% 0 mm 0 W/m2
02:14 8.1 °C 6.1 °C 977.9 hPa Calm     87% 0 mm 0 W/m2
02:19 7.9 °C 6.1 °C 977.9 hPa Calm     87.8% 0 mm 0 W/m2
02:24 7.8 °C 5.8 °C 977.9 hPa Calm     88% 0 mm 0 W/m2
02:29 7.5 °C 5.6 °C 977.9 hPa WSW 0.2 km/h 1.6 km/h 88% 0 mm 0 W/m2
02:34 7.4 °C 5.6 °C 977.9 hPa WSW 1.4 km/h 6.4 km/h 88.3% 0 mm 0 W/m2
02:39 7.3 °C 5.6 °C 977.9 hPa WSW 0.5 km/h 4.8 km/h 89% 0 mm 0 W/m2
02:44 7.3 °C 5.6 °C 977.9 hPa WSW 1.6 km/h 4.8 km/h 89% 0 mm 0 W/m2
02:49 7.2 °C 5.5 °C 977.9 hPa WSW 1.9 km/h 4.8 km/h 89% 0 mm 0 W/m2
02:54 7.2 °C 5.4 °C 977.9 hPa WSW 1 km/h 4.8 km/h 89% 0 mm 0 W/m2
02:59 7.1 °C 5.4 °C 977.9 hPa WSW 1.4 km/h 6.4 km/h 89.3% 0 mm 0 W/m2
03:04 7.1 °C 5.6 °C 977.9 hPa WSW 1.6 km/h 6.4 km/h 90% 0 mm 0 W/m2
03:09 7.1 °C 5.6 °C 977.5 hPa WSW 1.1 km/h 4.8 km/h 90% 0 mm 0 W/m2
03:14 7.1 °C 5.6 °C 977.9 hPa WSW 1.4 km/h 6.4 km/h 90% 0 mm 0 W/m2
03:19 7.1 °C 5.6 °C 977.9 hPa WSW 1 km/h 6.4 km/h 90% 0 mm 0 W/m2
03:24 7.1 °C 5.6 °C 977.9 hPa WSW 0.6 km/h 6.4 km/h 90% 0 mm 0 W/m2
03:29 7.1 °C 5.6 °C 977.9 hPa WSW 1.3 km/h 6.4 km/h 90% 0 mm 0 W/m2
03:34 7.1 °C 5.6 °C 977.9 hPa WSW 0.8 km/h 4.8 km/h 90% 0 mm 0 W/m2
03:39 7.1 °C 5.6 °C 977.9 hPa WSW 1.3 km/h 6.4 km/h 90% 0 mm 0 W/m2
03:44 7.2 °C 5.7 °C 977.9 hPa WSW 0.3 km/h 3.2 km/h 90% 0 mm 0 W/m2
03:49 7.2 °C 5.7 °C 977.9 hPa WSW 0.3 km/h 3.2 km/h 90% 0 mm 0 W/m2
03:54 7.2 °C 5.7 °C 977.9 hPa Calm   1.6 km/h 90% 0 mm 0 W/m2
03:59 7.2 °C 5.7 °C 977.9 hPa WSW 0.2 km/h 1.6 km/h 90% 0 mm 0 W/m2
04:04 7.2 °C 5.8 °C 977.9 hPa WSW 0.3 km/h 4.8 km/h 90.8% 0 mm 0 W/m2
04:09 7.3 °C 5.9 °C 977.9 hPa Calm   4.8 km/h 91% 0 mm 0 W/m2
04:14 7.3 °C 5.9 °C 977.9 hPa Calm   1.6 km/h 91% 0 mm 0 W/m2
04:19 7.4 °C 6 °C 977.9 hPa Calm     91% 0 mm 0 W/m2
04:24 7.4 °C 6 °C 978.2 hPa WSW 0.5 km/h 3.2 km/h 91% 0 mm 0 W/m2
04:29 7.5 °C 6.1 °C 978.2 hPa Calm   1.6 km/h 91% 0 mm 0 W/m2
04:34 7.6 °C 6.2 °C 978.2 hPa Calm   1.6 km/h 91% 0 mm 0 W/m2
04:39 7.6 °C 6.2 °C 978.2 hPa Calm   1.6 km/h 91% 0 mm 0 W/m2
04:44 7.7 °C 6.2 °C 978.2 hPa WSW 0.3 km/h 1.6 km/h 91% 0 mm 0 W/m2
04:49 7.7 °C 6.3 °C 978.2 hPa WSW 0.5 km/h 3.2 km/h 91% 0 mm 0 W/m2
04:54 7.7 °C 6.3 °C 978.2 hPa WSW 0.2 km/h 1.6 km/h 91% 0 mm 0 W/m2
04:59 7.8 °C 6.3 °C 978.2 hPa Calm   1.6 km/h 91% 0 mm 0 W/m2
05:04 7.8 °C 6.4 °C 978.6 hPa Calm   1.6 km/h 91% 0 mm 0 W/m2
05:09 7.8 °C 6.4 °C 978.6 hPa WSW 0.2 km/h 1.6 km/h 91% 0 mm 0 W/m2
05:14 7.9 °C 6.6 °C 978.6 hPa WSW 2.4 km/h 8 km/h 91.3% 0 mm 0 W/m2
05:19 7.9 °C 6.5 °C 978.6 hPa WSW 0.5 km/h 8 km/h 91% 0 mm 0 W/m2
05:24 7.9 °C 6.6 °C 978.6 hPa WSW 0.2 km/h 1.6 km/h 91.6% 0 mm 0 W/m2
05:29 7.9 °C 6.8 °C 978.6 hPa WSW 0.3 km/h 3.2 km/h 92% 0 mm 0 W/m2
05:34 7.9 °C 6.8 °C 978.6 hPa Calm   1.6 km/h 92% 0 mm 0 W/m2
05:39 8 °C 6.8 °C 978.6 hPa Calm     92% 0 mm 0 W/m2
05:44 8.1 °C 6.9 °C 978.6 hPa Calm     92% 0 mm 0 W/m2
05:49 8.1 °C 6.8 °C 978.6 hPa WSW 0.3 km/h 3.2 km/h 92% 0 mm 0 W/m2
05:54 8 °C 6.8 °C 978.9 hPa Calm   3.2 km/h 92% 0 mm 0 W/m2
05:59 8.1 °C 6.9 °C 978.9 hPa Calm     92% 0 mm 0 W/m2
06:04 8.1 °C 6.9 °C 978.6 hPa Calm     92% 0.25 mm 0 W/m2
06:09 8.1 °C 6.9 °C 978.9 hPa Calm     92% 0.25 mm 0 W/m2
06:14 8.1 °C 6.9 °C 978.9 hPa Calm     92% 0.25 mm 0 W/m2
06:19 8.2 °C 7.1 °C 978.9 hPa WSW 0.2 km/h 1.6 km/h 92.5% 0.51 mm 0 W/m2
06:24 8.2 °C 7.1 °C 978.9 hPa Calm   1.6 km/h 93% 0.51 mm 0 W/m2
06:29 8.2 °C 7.1 °C 978.9 hPa WSW 0.5 km/h 3.2 km/h 93% 0.76 mm 0 W/m2
06:34 8.3 °C 7.2 °C 978.9 hPa WSW 0.2 km/h 3.2 km/h 93% 1.02 mm 0 W/m2
06:39 8.2 °C 7.2 °C 978.9 hPa Calm   1.6 km/h 93% 1.27 mm 0 W/m2
06:44 8.3 °C 7.2 °C 978.9 hPa WSW 0.2 km/h 1.6 km/h 93% 1.52 mm 0 W/m2
06:49 8.3 °C 7.2 °C 979.2 hPa WSW 0.3 km/h 1.6 km/h 93% 1.52 mm 0 W/m2
06:54 8.3 °C 7.3 °C 979.2 hPa Calm     93% 1.52 mm 0 W/m2
06:59 8.3 °C 7.3 °C 978.9 hPa WSW 0.2 km/h 3.2 km/h 93% 1.52 mm 0 W/m2
07:04 8.3 °C 7.2 °C 978.9 hPa WSW 0.3 km/h 3.2 km/h 93% 1.52 mm 0 W/m2
07:09 8.4 °C 7.3 °C 979.2 hPa Calm   1.6 km/h 93% 1.52 mm 0 W/m2
07:14 8.4 °C 7.3 °C 979.2 hPa WSW 0.8 km/h 3.2 km/h 93% 1.78 mm 5 W/m2
07:19 8.4 °C 7.3 °C 979.2 hPa Calm   3.2 km/h 93% 1.78 mm 5 W/m2
07:24 8.4 °C 7.3 °C 979.6 hPa WSW 1 km/h 3.2 km/h 93% 1.52 mm 7 W/m2
07:29 8.4 °C 7.3 °C 979.6 hPa WSW 0.6 km/h 3.2 km/h 93% 1.52 mm 9 W/m2
07:34 8.4 °C 7.3 °C 979.6 hPa WSW 0.8 km/h 3.2 km/h 93% 1.27 mm 14 W/m2
07:39 8.4 °C 7.5 °C 979.6 hPa Calm   1.6 km/h 93.9% 1.02 mm 19 W/m2
07:44 8.4 °C 7.5 °C 979.9 hPa Calm     94% 0.76 mm 19 W/m2
07:49 8.4 °C 7.6 °C 979.9 hPa Calm     94% 0.51 mm 23 W/m2
07:54 8.6 °C 7.7 °C 979.9 hPa Calm     94% 0.51 mm 23 W/m2
07:59 8.6 °C 7.7 °C 979.9 hPa Calm     94% 0.51 mm 14 W/m2
08:04 8.7 °C 7.8 °C 979.9 hPa Calm     94% 0.51 mm 16 W/m2
08:09 8.7 °C 7.8 °C 979.9 hPa Calm     94% 0.51 mm 18 W/m2
08:14 8.8 °C 7.8 °C 979.9 hPa Calm     94% 0.25 mm 46 W/m2
08:19 8.8 °C 7.9 °C 979.9 hPa Calm     94% 0 mm 53 W/m2
08:24 8.8 °C 7.9 °C 980.2 hPa Calm     94% 0 mm 47 W/m2
08:29 8.8 °C 7.9 °C 980.2 hPa Calm     94% 0 mm 35 W/m2
08:34 8.9 °C 8 °C 980.2 hPa Calm     94% 0 mm 35 W/m2
08:39 9.2 °C 8.2 °C 980.2 hPa Calm     94% 0 mm 40 W/m2
08:44 9.2 °C 8.3 °C 980.2 hPa Calm     94% 0 mm 46 W/m2
08:49 9.3 °C 8.4 °C 980.2 hPa Calm     94% 0 mm 47 W/m2
08:54 9.3 °C 8.4 °C 980.6 hPa Calm     94% 0 mm 46 W/m2
08:59 9.2 °C 8.3 °C 980.6 hPa Calm     94% 0 mm 44 W/m2
09:04 9.2 °C 8.3 °C 980.6 hPa Calm     94% 0 mm 69 W/m2
09:09 9.2 °C 8.3 °C 980.6 hPa Calm     94% 0 mm 74 W/m2
09:14 9.3 °C 8.4 °C 980.9 hPa Calm     94% 0 mm 81 W/m2
09:19 9.4 °C 8.5 °C 980.9 hPa WSW 1.3 km/h 6.4 km/h 94% 0 mm 79 W/m2
09:24 9.4 °C 8.5 °C 980.9 hPa WSW 1.6 km/h 6.4 km/h 94% 0 mm 77 W/m2
09:29 9.4 °C 8.6 °C 980.9 hPa Calm   1.6 km/h 94% 0 mm 83 W/m2
09:34 9.6 °C 8.7 °C 980.9 hPa WSW 1 km/h 3.2 km/h 94% 0 mm 118 W/m2
09:39 9.6 °C 8.7 °C 980.9 hPa WSW 1.3 km/h 3.2 km/h 94% 0 mm 111 W/m2
09:44 9.6 °C 8.7 °C 980.9 hPa WSW 2.7 km/h 8 km/h 94% 0 mm 86 W/m2
09:49 9.7 °C 8.7 °C 980.9 hPa WSW 2.1 km/h 8 km/h 94% 0 mm 120 W/m2
09:54 9.7 °C 8.8 °C 980.9 hPa WSW 4.3 km/h 8 km/h 94.6% 0 mm 148 W/m2
09:59 9.8 °C 9 °C 980.9 hPa WSW 2.3 km/h 6.4 km/h 94.5% 0 mm 250 W/m2
10:04 9.9 °C 9.1 °C 980.9 hPa WSW 3.4 km/h 6.4 km/h 94.2% 0 mm 171 W/m2
10:09 9.9 °C 9 °C 980.9 hPa WSW 3.7 km/h 8 km/h 94% 0 mm 142 W/m2
10:14 9.9 °C 9.1 °C 980.9 hPa WSW 4.5 km/h 9.7 km/h 94% 0 mm 174 W/m2
10:19 9.9 °C 9 °C 981.3 hPa West 6.8 km/h 11.3 km/h 94% 0 mm 174 W/m2
10:24 9.9 °C 9.1 °C 981.3 hPa WNW 6 km/h 11.3 km/h 94% 0 mm 346 W/m2
10:29 10.1 °C 9.2 °C 981.3 hPa WNW 3.5 km/h 11.3 km/h 94% 0 mm 269 W/m2
10:34 10.3 °C 9.4 °C 981.3 hPa West 7.1 km/h 14.5 km/h 94% 0 mm 134 W/m2
10:39 10.3 °C 9.4 °C 981.6 hPa West 6.3 km/h 11.3 km/h 94% 0 mm 176 W/m2
10:44 10.4 °C 9.5 °C 981.3 hPa WNW 5 km/h 11.3 km/h 94% 0 mm 272 W/m2
10:49 10.7 °C 9.8 °C 981.3 hPa WNW 5.1 km/h 12.9 km/h 94% 0 mm 422 W/m2
10:54 10.7 °C 9.8 °C 981.6 hPa NW 9.2 km/h 17.7 km/h 94% 0 mm 251 W/m2
10:59 10.7 °C 9.8 °C 981.6 hPa WNW 7.2 km/h 17.7 km/h 94% 0 mm 81 W/m2
11:04 10.7 °C 9.8 °C 981.6 hPa WNW 5.8 km/h 11.3 km/h 94% 0 mm 130 W/m2
11:09 10.7 °C 9.8 °C 981.6 hPa WNW 8.9 km/h 19.3 km/h 93.8% 0 mm 156 W/m2
11:14 10.7 °C 9.6 °C 981.9 hPa WNW 9.2 km/h 19.3 km/h 93.1% 0 mm 132 W/m2
11:19 10.7 °C 9.6 °C 981.9 hPa WNW 7.2 km/h 16.1 km/h 93% 0 mm 134 W/m2
11:24 10.7 °C 9.6 °C 981.9 hPa NW 8 km/h 16.1 km/h 93% 0 mm 97 W/m2
11:29 10.7 °C 9.6 °C 981.9 hPa WNW 6.1 km/h 12.9 km/h 93% 0 mm 60 W/m2
11:34 10.7 °C 9.6 °C 982.3 hPa NW 6.3 km/h 12.9 km/h 93% 0 mm 46 W/m2
11:39 10.6 °C 9.4 °C 982.3 hPa NW 6.4 km/h 12.9 km/h 93% 0 mm 26 W/m2
11:44 10.4 °C 9.3 °C 982.3 hPa NW 3.7 km/h 11.3 km/h 93% 0 mm 53 W/m2
11:49 10.4 °C 9.3 °C 982.3 hPa NW 3.4 km/h 9.7 km/h 93% 0 mm 111 W/m2
11:54 10.6 °C 9.4 °C 982.3 hPa NW 2.1 km/h 9.7 km/h 93% 0 mm 214 W/m2
11:59 10.8 °C 9.7 °C 982.3 hPa NW 1.4 km/h 6.4 km/h 93% 0 mm 483 W/m2
12:04 11.2 °C 10.1 °C 982.3 hPa NW 1.6 km/h 6.4 km/h 93% 0 mm 374 W/m2
12:09 11.3 °C 10.2 °C 982.3 hPa NW 1.9 km/h 6.4 km/h 93% 0 mm 466 W/m2
12:14 11.7 °C 10.5 °C 982.3 hPa WNW 3.5 km/h 8 km/h 92.6% 0 mm 376 W/m2
12:19 11.7 °C 10.4 °C 982.3 hPa WNW 4.7 km/h 11.3 km/h 92% 0 mm 323 W/m2
12:24 11.7 °C 10.3 °C 982.3 hPa West 8 km/h 12.9 km/h 91.1% 0 mm 478 W/m2
12:29 11.8 °C 10.3 °C 982.6 hPa West 6.9 km/h 12.9 km/h 90.6% 0 mm 478 W/m2
12:34 11.7 °C 10.1 °C 982.6 hPa WNW 6.6 km/h 12.9 km/h 90% 0 mm 179 W/m2
12:39 11.6 °C 9.8 °C 982.6 hPa WNW 4.2 km/h 12.9 km/h 89.2% 0 mm 171 W/m2
12:44 11.6 °C 9.8 °C 982.6 hPa West 4.7 km/h 11.3 km/h 89% 0 mm 171 W/m2
12:49 11.7 °C 9.8 °C 982.6 hPa WNW 6.4 km/h 12.9 km/h 88.5% 0 mm 118 W/m2
12:54 11.5 °C 9.6 °C 982.6 hPa WNW 7.4 km/h 14.5 km/h 87.8% 0 mm 229 W/m2
12:59 11.8 °C 9.7 °C 982.6 hPa NW 4.8 km/h 12.9 km/h 86.6% 0 mm 441 W/m2
13:04 12.5 °C 10.2 °C 982.6 hPa NW 2.4 km/h 8 km/h 85.8% 0 mm 413 W/m2
13:09 12.4 °C 9.9 °C 982.6 hPa WNW 7.1 km/h 11.3 km/h 84.5% 0 mm 413 W/m2
13:14 12.3 °C 9.7 °C 982.6 hPa WNW 6 km/h 9.7 km/h 84% 0 mm 114 W/m2
13:19 12.2 °C 9.5 °C 982.6 hPa WNW 5 km/h 9.7 km/h 83.4% 0 mm 67 W/m2
13:24 12.1 °C 9.3 °C 982.6 hPa WNW 6.6 km/h 14.5 km/h 83% 0 mm 127 W/m2
13:29 11.9 °C 9.2 °C 982.6 hPa WNW 4.8 km/h 12.9 km/h 83% 0 mm 141 W/m2
13:34 12 °C 9.2 °C 982.6 hPa WNW 5.3 km/h 12.9 km/h 83% 0 mm 195 W/m2
13:39 12.2 °C 9.3 °C 982.6 hPa WNW 5.1 km/h 12.9 km/h 82.4% 0 mm 424 W/m2
13:44 12.7 °C 9.6 °C 982.6 hPa WNW 8.4 km/h 16.1 km/h 81.3% 0 mm 417 W/m2
13:49 12.8 °C 9.2 °C 982.6 hPa WNW 10.3 km/h 17.7 km/h 78.7% 0 mm 401 W/m2
13:54 12.8 °C 9.2 °C 982.6 hPa WNW 6.8 km/h 17.7 km/h 79% 0 mm 239 W/m2
13:59 12.7 °C 9.3 °C 982.6 hPa West 7.7 km/h 14.5 km/h 79.6% 0 mm 392 W/m2
14:04 12.8 °C 9.3 °C 982.6 hPa West 10.5 km/h 16.1 km/h 79.6% 0 mm 366 W/m2
14:09 12.8 °C 9.3 °C 982.6 hPa West 8 km/h 16.1 km/h 79.7% 0 mm 322 W/m2
14:14 13.1 °C 9.7 °C 982.6 hPa West 7.2 km/h 16.1 km/h 80.1% 0 mm 338 W/m2
14:19 13.3 °C 10 °C 982.6 hPa West 8.7 km/h 17.7 km/h 80.5% 0 mm 330 W/m2
14:24 13.4 °C 10 °C 982.6 hPa West 7.2 km/h 16.1 km/h 80% 0 mm 299 W/m2
14:29 13.3 °C 9.8 °C 982.6 hPa West 9.5 km/h 16.1 km/h 79.5% 0 mm 288 W/m2
14:34 13.1 °C 9.3 °C 982.6 hPa West 8.2 km/h 16.1 km/h 78% 0 mm 251 W/m2
14:39 12.9 °C 9.2 °C 982.6 hPa West 8.5 km/h 16.1 km/h 78% 0 mm 218 W/m2
14:44 13.1 °C 9.3 °C 982.6 hPa West 7.4 km/h 16.1 km/h 78% 0 mm 204 W/m2
14:49 13.2 °C 9.3 °C 982.6 hPa West 8.7 km/h 16.1 km/h 77.2% 0 mm 195 W/m2
14:54 13.1 °C 9.1 °C 982.6 hPa West 8.9 km/h 17.7 km/h 76.2% 0 mm 178 W/m2
14:59 12.8 °C 8.9 °C 982.6 hPa West 9.7 km/h 17.7 km/h 76.9% 0 mm 113 W/m2
15:04 12.6 °C 8.7 °C 982.6 hPa West 7.2 km/h 14.5 km/h 77.1% 0 mm 114 W/m2
15:09 12.5 °C 8.8 °C 982.6 hPa WNW 5.5 km/h 16.1 km/h 78% 0 mm 171 W/m2
15:14 12.7 °C 9 °C 982.6 hPa West 3.9 km/h 9.7 km/h 78% 0 mm 176 W/m2
15:19 13.1 °C 9.3 °C 982.6 hPa WSW 6.6 km/h 14.5 km/h 78% 0 mm 172 W/m2
15:24 13.1 °C 9.3 °C 982.6 hPa West 4.8 km/h 11.3 km/h 78% 0 mm 118 W/m2
15:29 12.8 °C 9.1 °C 982.6 hPa West 4.7 km/h 9.7 km/h 78% 0 mm 62 W/m2
15:34 12.7 °C 9.1 °C 982.6 hPa West 3.5 km/h 9.7 km/h 78.7% 0 mm 54 W/m2
15:39 12.4 °C 9 °C 982.6 hPa West 2.6 km/h 8 km/h 79.3% 0 mm 65 W/m2
15:44 12.4 °C 9 °C 982.6 hPa West 3.4 km/h 12.9 km/h 80% 0 mm 74 W/m2
15:49 12.3 °C 9.1 °C 983 hPa West 5.5 km/h 12.9 km/h 80.7% 0 mm 47 W/m2
15:54 12.2 °C 9.1 °C 983 hPa West 2.3 km/h 9.7 km/h 81% 0 mm 28 W/m2
15:59 12.2 °C 8.9 °C 983 hPa West 2.4 km/h 4.8 km/h 81% 0 mm 21 W/m2
16:04 12 °C 8.9 °C 983 hPa West 2.3 km/h 8 km/h 81.6% 0 mm 18 W/m2
16:09 11.9 °C 8.9 °C 983 hPa West 1.9 km/h 4.8 km/h 82% 0 mm 25 W/m2
16:14 11.8 °C 8.8 °C 983 hPa West 1.9 km/h 6.4 km/h 82% 0 mm 18 W/m2
16:19 11.8 °C 9 °C 983 hPa West 0.8 km/h 6.4 km/h 83% 0 mm 9 W/m2
16:24 11.8 °C 9 °C 983 hPa Calm   3.2 km/h 83% 0 mm 5 W/m2
16:29 11.8 °C 9.1 °C 983 hPa West 0.2 km/h 3.2 km/h 83.2% 0 mm 5 W/m2
16:34 11.8 °C 9.1 °C 983 hPa Calm   1.6 km/h 83.3% 0 mm 0 W/m2
16:39 11.7 °C 9.1 °C 983 hPa Calm     83.8% 0 mm 0 W/m2
16:44 11.7 °C 9.2 °C 983 hPa Calm     84% 0 mm 0 W/m2
16:49 11.8 °C 9.3 °C 983 hPa Calm   1.6 km/h 84.3% 0 mm 0 W/m2
16:54 11.8 °C 9.4 °C 983 hPa West 0.6 km/h 4.8 km/h 85% 0 mm 0 W/m2
16:59 11.7 °C 9.3 °C 983 hPa West 1.9 km/h 6.4 km/h 85% 0 mm 0 W/m2
17:04 11.7 °C 9.3 °C 983 hPa SW 5.1 km/h 9.7 km/h 85% 0 mm 0 W/m2
17:09 11.7 °C 9.2 °C 983 hPa SW 5 km/h 11.3 km/h 85% 0 mm 0 W/m2
17:14 11.6 °C 9.2 °C 983 hPa WSW 3.7 km/h 11.3 km/h 85% 0 mm 0 W/m2
17:19 11.6 °C 9.2 °C 983 hPa SW 3.9 km/h 12.9 km/h 85% 0 mm 0 W/m2
17:24 11.5 °C 9.2 °C 983 hPa SW 5.3 km/h 12.9 km/h 85.4% 0 mm 0 W/m2
17:29 11.4 °C 9.1 °C 983 hPa SW 1.4 km/h 6.4 km/h 86% 0 mm 0 W/m2
17:34 11.4 °C 9.1 °C 983 hPa SW 3.1 km/h 8 km/h 86% 0 mm 0 W/m2
17:39 11.3 °C 9.1 °C 983 hPa SW 3.4 km/h 11.3 km/h 86.6% 0 mm 0 W/m2
17:44 11.2 °C 9.1 °C 983 hPa SW 1.3 km/h 6.4 km/h 87% 0 mm 0 W/m2
17:49 11.2 °C 9.1 °C 983 hPa SW 1.8 km/h 6.4 km/h 87% 0 mm 0 W/m2
17:54 11.2 °C 9.3 °C 983 hPa SW 1.1 km/h 4.8 km/h 87.9% 0 mm 0 W/m2
17:59 11.2 °C 9.3 °C 983 hPa SW 0.2 km/h 3.2 km/h 88% 0 mm 0 W/m2
18:04 11.1 °C 9.2 °C 983 hPa SW 0.8 km/h 3.2 km/h 88% 0 mm 0 W/m2
18:09 11.2 °C 9.3 °C 983 hPa SW 0.5 km/h 4.8 km/h 88.2% 0 mm 0 W/m2
18:14 11.2 °C 9.4 °C 983 hPa SSW 1.4 km/h 8 km/h 89% 0 mm 0 W/m2
18:19 11.1 °C 9.4 °C 983.3 hPa SSW 1.3 km/h 4.8 km/h 89% 0.25 mm 0 W/m2
18:24 11.1 °C 9.4 °C 983.3 hPa SSW 2.3 km/h 8 km/h 89% 0.51 mm 0 W/m2
18:29 11.1 °C 9.4 °C 983.3 hPa SSW 1.9 km/h 9.7 km/h 89.2% 0.51 mm 0 W/m2
18:34 11 °C 9.4 °C 983.3 hPa SW 1 km/h 8 km/h 90% 0.51 mm 0 W/m2
18:39 11 °C 9.4 °C 983.3 hPa SW 1.3 km/h 6.4 km/h 90% 0.76 mm 0 W/m2
18:44 10.9 °C 9.3 °C 983.3 hPa SW 1.4 km/h 8 km/h 90% 1.52 mm 0 W/m2
18:49 10.9 °C 9.4 °C 983.3 hPa SSW 1.8 km/h 9.7 km/h 90.5% 2.29 mm 0 W/m2
18:54 10.8 °C 9.4 °C 983.3 hPa SW 4.3 km/h 9.7 km/h 91% 2.79 mm 0 W/m2
18:59 10.7 °C 9.3 °C 983.3 hPa SW 4 km/h 9.7 km/h 91% 3.3 mm 0 W/m2
19:04 10.7 °C 9.3 °C 983.3 hPa SW 4.2 km/h 12.9 km/h 91% 4.32 mm 0 W/m2
19:09 10.6 °C 9.3 °C 983.3 hPa WSW 9.5 km/h 22.5 km/h 91.4% 5.08 mm 0 W/m2
19:14 10.6 °C 9.3 °C 983.3 hPa West 16.7 km/h 27.4 km/h 92% 5.33 mm 0 W/m2
19:19 10.4 °C 9.2 °C 983.3 hPa WNW 16.1 km/h 30.6 km/h 92% 5.33 mm 0 W/m2
19:24 10.4 °C 9.2 °C 983.3 hPa WNW 10 km/h 24.1 km/h 92% 5.59 mm 0 W/m2
19:29 10.3 °C 9.2 °C 983.3 hPa West 10.6 km/h 24.1 km/h 92.5% 5.33 mm 0 W/m2
19:34 10.3 °C 9.2 °C 983.3 hPa West 13.5 km/h 25.7 km/h 93% 5.33 mm 0 W/m2
19:39 10.2 °C 9.1 °C 983.3 hPa West 13.5 km/h 22.5 km/h 93% 5.08 mm 0 W/m2
19:44 10.2 °C 9.1 °C 983.3 hPa West 9.7 km/h 24.1 km/h 93% 5.08 mm 0 W/m2
19:49 10.2 °C 9.1 °C 983.3 hPa West 7.2 km/h 14.5 km/h 93% 4.32 mm 0 W/m2
19:54 10.2 °C 9.1 °C 983.3 hPa West 6.4 km/h 12.9 km/h 93% 3.56 mm 0 W/m2
19:59 10.1 °C 9 °C 983.3 hPa West 4.7 km/h 14.5 km/h 93% 3.05 mm 0 W/m2
20:04 10.1 °C 9 °C 983.3 hPa WSW 5.1 km/h 11.3 km/h 93% 2.29 mm 0 W/m2
20:09 10.2 °C 9.1 °C 983.3 hPa West 4.2 km/h 11.3 km/h 93% 1.52 mm 0 W/m2
20:14 10.2 °C 9.1 °C 983.3 hPa WSW 8 km/h 12.9 km/h 93% 0.76 mm 0 W/m2
20:19 10.1 °C 9 °C 983.3 hPa WSW 6.9 km/h 14.5 km/h 92.8% 0.51 mm 0 W/m2
20:24 10.1 °C 8.9 °C 983.3 hPa WSW 10 km/h 16.1 km/h 92% 0.25 mm 0 W/m2
20:29 10.1 °C 8.8 °C 983.3 hPa WSW 5.6 km/h 17.7 km/h 92% 0 mm 0 W/m2
20:34 10 °C 8.8 °C 983.3 hPa WSW 5.1 km/h 9.7 km/h 92% 0 mm 0 W/m2
20:39 9.9 °C 8.7 °C 983 hPa West 4.8 km/h 11.3 km/h 92% 0 mm 0 W/m2
20:44 9.9 °C 8.7 °C 983 hPa WSW 8.4 km/h 19.3 km/h 92% 0 mm 0 W/m2
20:49 9.9 °C 8.7 °C 983 hPa West 8.2 km/h 16.1 km/h 91.9% 0 mm 0 W/m2
20:54 9.9 °C 8.6 °C 983 hPa WSW 5.6 km/h 16.1 km/h 91.2% 0 mm 0 W/m2
20:59 9.8 °C 8.4 °C 983 hPa West 8 km/h 16.1 km/h 91% 0 mm 0 W/m2
21:04 9.8 °C 8.4 °C 983 hPa WSW 7.9 km/h 14.5 km/h 91% 0 mm 0 W/m2
21:09 9.8 °C 8.4 °C 983 hPa WSW 6.9 km/h 16.1 km/h 91% 0 mm 0 W/m2
21:14 9.7 °C 8.3 °C 983 hPa WSW 6.8 km/h 14.5 km/h 91% 0 mm 0 W/m2
21:19 9.7 °C 8.3 °C 983 hPa WSW 9.2 km/h 16.1 km/h 91% 0 mm 0 W/m2
21:24 9.6 °C 8.1 °C 983 hPa WSW 9.3 km/h 14.5 km/h 90.3% 0 mm 0 W/m2
21:29 9.6 °C 8 °C 983 hPa WSW 5.1 km/h 11.3 km/h 90% 0 mm 0 W/m2
21:34 9.5 °C 7.9 °C 983 hPa WSW 8.2 km/h 17.7 km/h 90% 0 mm 0 W/m2
21:39 9.4 °C 7.8 °C 983 hPa WSW 9.3 km/h 17.7 km/h 90% 0 mm 0 W/m2
21:44 9.4 °C 7.8 °C 983 hPa WSW 7.9 km/h 17.7 km/h 90% 0 mm 0 W/m2
21:49 9.3 °C 7.8 °C 983 hPa WSW 8.7 km/h 19.3 km/h 90% 0 mm 0 W/m2
21:54 9.3 °C 7.7 °C 983 hPa WSW 5.5 km/h 12.9 km/h 90% 0 mm 0 W/m2
21:59 9.3 °C 7.7 °C 983 hPa WSW 7.7 km/h 16.1 km/h 90% 0 mm 0 W/m2
22:04 9.3 °C 7.7 °C 983 hPa SW 6.3 km/h 16.1 km/h 90% 0 mm 0 W/m2
22:09 9.3 °C 7.7 °C 983 hPa WSW 5.3 km/h 12.9 km/h 90% 0 mm 0 W/m2
22:14 9.3 °C 7.7 °C 983 hPa SW 5.5 km/h 12.9 km/h 90% 0 mm 0 W/m2
22:19 9.3 °C 7.7 °C 983 hPa SW 6.1 km/h 11.3 km/h 90% 0 mm 0 W/m2
22:24 9.2 °C 7.6 °C 983 hPa WSW 1.6 km/h 12.9 km/h 90% 0 mm 0 W/m2
22:29 9.2 °C 7.6 °C 982.6 hPa SW 1.3 km/h 6.4 km/h 90% 0 mm 0 W/m2
22:34 9.1 °C 7.5 °C 982.6 hPa WSW 2.4 km/h 8 km/h 90% 0 mm 0 W/m2
22:39 9.1 °C 7.5 °C 982.6 hPa WSW 0.8 km/h 8 km/h 90% 0 mm 0 W/m2
22:44 9.1 °C 7.4 °C 982.6 hPa WSW 1.4 km/h 4.8 km/h 90% 0 mm 0 W/m2
22:49 8.9 °C 7.3 °C 982.6 hPa WSW 1.9 km/h 4.8 km/h 90% 0 mm 0 W/m2
22:54 8.9 °C 7.3 °C 982.6 hPa Calm   1.6 km/h 90.3% 0 mm 0 W/m2
22:59 8.9 °C 7.5 °C 982.3 hPa WSW 1 km/h 6.4 km/h 91% 0 mm 0 W/m2
23:04 9 °C 7.6 °C 982.3 hPa SW 5.3 km/h 11.3 km/h 91% 0 mm 0 W/m2
23:09 9.1 °C 7.7 °C 982.3 hPa SW 2.7 km/h 9.7 km/h 91% 0 mm 0 W/m2
23:14 9.2 °C 7.8 °C 982.3 hPa SW 1.9 km/h 9.7 km/h 91% 0 mm 0 W/m2
23:19 9.2 °C 7.8 °C 982.3 hPa SW 3.1 km/h 8 km/h 91% 0 mm 0 W/m2
23:24 9.2 °C 7.8 °C 982.3 hPa SW 0.6 km/h 8 km/h 91% 0 mm 0 W/m2
23:29 9.2 °C 7.8 °C 981.9 hPa SW 1 km/h 6.4 km/h 91% 0 mm 0 W/m2
23:34 9.2 °C 7.8 °C 981.9 hPa SW 0.5 km/h 6.4 km/h 91% 0 mm 0 W/m2
23:39 9.3 °C 7.9 °C 981.9 hPa SW 1.4 km/h 4.8 km/h 91% 0 mm 0 W/m2
23:44 9.3 °C 7.8 °C 981.9 hPa SW 0.2 km/h 3.2 km/h 91% 0 mm 0 W/m2
23:49 9.2 °C 7.8 °C 981.9 hPa Calm   1.6 km/h 91% 0 mm 0 W/m2
23:54 9.2 °C 7.8 °C 981.9 hPa SW 0.3 km/h 3.2 km/h 91% 0 mm 0 W/m2
23:59 9.2 °C 7.8 °C 981.9 hPa Calm     91% 0 mm 0 W/m2
Bath Spa Weather
Compliments of Weather Underground - 2 mb